sensor_id;sensor_type;location;lat;lon;timestamp;P1;durP1;ratioP1;P2;durP2;ratioP2
75064;SDS011;63646;49.110;9.140;2022-09-27T00:00:57;1.10;;;1.00;;
75064;SDS011;63646;49.110;9.140;2022-09-27T00:03:23;1.70;;;1.10;;
75064;SDS011;63646;49.110;9.140;2022-09-27T00:05:49;1.10;;;1.00;;
75064;SDS011;63646;49.110;9.140;2022-09-27T00:08:28;1.52;;;1.17;;
75064;SDS011;63646;49.110;9.140;2022-09-27T00:10:57;1.38;;;1.20;;
75064;SDS011;63646;49.110;9.140;2022-09-27T00:13:24;1.48;;;1.05;;
75064;SDS011;63646;49.110;9.140;2022-09-27T00:15:54;1.25;;;0.90;;
75064;SDS011;63646;49.110;9.140;2022-09-27T00:18:21;1.42;;;1.00;;
75064;SDS011;63646;49.110;9.140;2022-09-27T00:20:46;1.20;;;1.10;;
75064;SDS011;63646;49.110;9.140;2022-09-27T00:23:11;1.77;;;1.10;;
75064;SDS011;63646;49.110;9.140;2022-09-27T00:25:37;1.17;;;0.93;;
75064;SDS011;63646;49.110;9.140;2022-09-27T00:28:02;1.10;;;1.00;;
75064;SDS011;63646;49.110;9.140;2022-09-27T00:30:28;1.60;;;1.10;;
75064;SDS011;63646;49.110;9.140;2022-09-27T00:32:53;0.88;;;0.88;;
75064;SDS011;63646;49.110;9.140;2022-09-27T00:35:18;1.00;;;0.93;;
75064;SDS011;63646;49.110;9.140;2022-09-27T00:37:46;1.58;;;0.90;;
75064;SDS011;63646;49.110;9.140;2022-09-27T00:40:13;0.98;;;0.90;;
75064;SDS011;63646;49.110;9.140;2022-09-27T00:42:39;1.00;;;1.00;;
75064;SDS011;63646;49.110;9.140;2022-09-27T00:45:06;1.15;;;1.05;;
75064;SDS011;63646;49.110;9.140;2022-09-27T00:50:22;0.80;;;0.80;;
75064;SDS011;63646;49.110;9.140;2022-09-27T00:55:34;0.95;;;0.80;;
75064;SDS011;63646;49.110;9.140;2022-09-27T00:58:04;1.55;;;1.30;;
75064;SDS011;63646;49.110;9.140;2022-09-27T01:00:31;1.00;;;0.90;;
75064;SDS011;63646;49.110;9.140;2022-09-27T01:02:57;1.67;;;1.10;;
75064;SDS011;63646;49.110;9.140;2022-09-27T01:05:24;1.00;;;1.00;;
75064;SDS011;63646;49.110;9.140;2022-09-27T01:07:52;1.13;;;1.00;;
75064;SDS011;63646;49.110;9.140;2022-09-27T01:10:20;1.40;;;1.00;;
75064;SDS011;63646;49.110;9.140;2022-09-27T01:12:56;0.73;;;0.73;;
75064;SDS011;63646;49.110;9.140;2022-09-27T01:18:51;2.15;;;0.90;;
75064;SDS011;63646;49.110;9.140;2022-09-27T01:26:59;1.17;;;0.90;;
75064;SDS011;63646;49.110;9.140;2022-09-27T01:35:06;0.93;;;0.80;;
75064;SDS011;63646;49.110;9.140;2022-09-27T01:37:39;1.30;;;1.20;;
75064;SDS011;63646;49.110;9.140;2022-09-27T01:40:26;1.08;;;0.98;;
75064;SDS011;63646;49.110;9.140;2022-09-27T01:45:38;0.90;;;0.90;;
75064;SDS011;63646;49.110;9.140;2022-09-27T01:48:14;0.90;;;0.90;;
75064;SDS011;63646;49.110;9.140;2022-09-27T01:50:49;0.88;;;0.80;;
75064;SDS011;63646;49.110;9.140;2022-09-27T01:53:21;1.00;;;1.00;;
75064;SDS011;63646;49.110;9.140;2022-09-27T01:55:51;0.93;;;0.80;;
75064;SDS011;63646;49.110;9.140;2022-09-27T02:00:46;1.25;;;1.05;;
75064;SDS011;63646;49.110;9.140;2022-09-27T02:03:15;1.00;;;0.90;;
75064;SDS011;63646;49.110;9.140;2022-09-27T02:05:47;0.85;;;0.85;;
75064;SDS011;63646;49.110;9.140;2022-09-27T02:08:27;0.93;;;0.80;;
75064;SDS011;63646;49.110;9.140;2022-09-27T02:11:00;1.27;;;0.80;;
75064;SDS011;63646;49.110;9.140;2022-09-27T02:16:50;1.38;;;1.10;;
75064;SDS011;63646;49.110;9.140;2022-09-27T02:22:15;0.80;;;0.80;;
75064;SDS011;63646;49.110;9.140;2022-09-27T02:24:56;1.10;;;0.95;;
75064;SDS011;63646;49.110;9.140;2022-09-27T02:30:03;1.10;;;1.00;;
75064;SDS011;63646;49.110;9.140;2022-09-27T02:32:32;1.15;;;1.02;;
75064;SDS011;63646;49.110;9.140;2022-09-27T02:34:59;1.00;;;1.00;;
75064;SDS011;63646;49.110;9.140;2022-09-27T02:37:28;0.98;;;0.85;;
75064;SDS011;63646;49.110;9.140;2022-09-27T02:39:55;0.90;;;0.90;;
75064;SDS011;63646;49.110;9.140;2022-09-27T02:42:21;1.48;;;0.90;;
75064;SDS011;63646;49.110;9.140;2022-09-27T02:44:47;1.23;;;0.77;;
75064;SDS011;63646;49.110;9.140;2022-09-27T02:47:17;0.95;;;0.90;;
75064;SDS011;63646;49.110;9.140;2022-09-27T02:55:49;1.10;;;1.00;;
75064;SDS011;63646;49.110;9.140;2022-09-27T03:00:48;1.60;;;0.80;;
75064;SDS011;63646;49.110;9.140;2022-09-27T03:06:24;0.82;;;0.82;;
75064;SDS011;63646;49.110;9.140;2022-09-27T03:08:51;1.17;;;1.00;;
75064;SDS011;63646;49.110;9.140;2022-09-27T03:11:16;1.05;;;0.95;;
75064;SDS011;63646;49.110;9.140;2022-09-27T03:13:43;1.42;;;0.80;;
75064;SDS011;63646;49.110;9.140;2022-09-27T03:16:09;0.93;;;0.82;;
75064;SDS011;63646;49.110;9.140;2022-09-27T03:18:34;1.10;;;0.90;;
75064;SDS011;63646;49.110;9.140;2022-09-27T03:21:00;1.00;;;0.82;;
75064;SDS011;63646;49.110;9.140;2022-09-27T03:23:25;0.90;;;0.85;;
75064;SDS011;63646;49.110;9.140;2022-09-27T03:25:51;1.27;;;0.98;;
75064;SDS011;63646;49.110;9.140;2022-09-27T03:28:17;0.88;;;0.88;;
75064;SDS011;63646;49.110;9.140;2022-09-27T03:30:43;0.80;;;0.80;;
75064;SDS011;63646;49.110;9.140;2022-09-27T03:33:09;1.50;;;0.90;;
75064;SDS011;63646;49.110;9.140;2022-09-27T03:35:35;0.93;;;0.80;;
75064;SDS011;63646;49.110;9.140;2022-09-27T03:38:01;0.75;;;0.75;;
75064;SDS011;63646;49.110;9.140;2022-09-27T03:40:27;1.10;;;1.00;;
75064;SDS011;63646;49.110;9.140;2022-09-27T03:42:52;1.00;;;0.90;;
75064;SDS011;63646;49.110;9.140;2022-09-27T03:45:19;2.33;;;0.90;;
75064;SDS011;63646;49.110;9.140;2022-09-27T03:47:44;1.67;;;1.00;;
75064;SDS011;63646;49.110;9.140;2022-09-27T03:50:10;0.80;;;0.77;;
75064;SDS011;63646;49.110;9.140;2022-09-27T03:52:36;1.35;;;0.90;;
75064;SDS011;63646;49.110;9.140;2022-09-27T03:55:02;0.95;;;0.90;;
75064;SDS011;63646;49.110;9.140;2022-09-27T03:57:28;1.20;;;0.80;;
75064;SDS011;63646;49.110;9.140;2022-09-27T03:59:54;0.90;;;0.80;;
75064;SDS011;63646;49.110;9.140;2022-09-27T04:02:20;0.88;;;0.80;;
75064;SDS011;63646;49.110;9.140;2022-09-27T04:04:45;1.08;;;0.98;;
75064;SDS011;63646;49.110;9.140;2022-09-27T04:07:11;1.60;;;0.80;;
75064;SDS011;63646;49.110;9.140;2022-09-27T04:09:36;1.15;;;0.90;;
75064;SDS011;63646;49.110;9.140;2022-09-27T04:12:02;0.65;;;0.65;;
75064;SDS011;63646;49.110;9.140;2022-09-27T04:14:28;1.02;;;0.90;;
75064;SDS011;63646;49.110;9.140;2022-09-27T04:16:53;0.82;;;0.73;;
75064;SDS011;63646;49.110;9.140;2022-09-27T04:19:19;0.93;;;0.82;;
75064;SDS011;63646;49.110;9.140;2022-09-27T04:21:44;0.80;;;0.80;;
75064;SDS011;63646;49.110;9.140;2022-09-27T04:24:10;0.77;;;0.70;;
75064;SDS011;63646;49.110;9.140;2022-09-27T04:26:36;0.75;;;0.70;;
75064;SDS011;63646;49.110;9.140;2022-09-27T04:29:03;1.33;;;0.85;;
75064;SDS011;63646;49.110;9.140;2022-09-27T04:31:29;0.90;;;0.80;;
75064;SDS011;63646;49.110;9.140;2022-09-27T04:33:54;0.80;;;0.80;;
75064;SDS011;63646;49.110;9.140;2022-09-27T04:36:20;0.93;;;0.90;;
75064;SDS011;63646;49.110;9.140;2022-09-27T04:38:54;0.80;;;0.80;;
75064;SDS011;63646;49.110;9.140;2022-09-27T04:41:21;0.80;;;0.80;;
75064;SDS011;63646;49.110;9.140;2022-09-27T04:43:48;0.70;;;0.70;;
75064;SDS011;63646;49.110;9.140;2022-09-27T04:46:15;0.80;;;0.80;;
75064;SDS011;63646;49.110;9.140;2022-09-27T04:48:40;1.30;;;1.20;;
75064;SDS011;63646;49.110;9.140;2022-09-27T04:51:06;2.42;;;0.90;;
75064;SDS011;63646;49.110;9.140;2022-09-27T04:53:33;3.90;;;1.00;;
75064;SDS011;63646;49.110;9.140;2022-09-27T04:55:59;2.63;;;1.00;;
75064;SDS011;63646;49.110;9.140;2022-09-27T04:58:30;2.35;;;1.00;;
75064;SDS011;63646;49.110;9.140;2022-09-27T05:00:58;4.50;;;1.10;;
75064;SDS011;63646;49.110;9.140;2022-09-27T05:03:25;1.38;;;1.02;;
75064;SDS011;63646;49.110;9.140;2022-09-27T05:05:52;1.23;;;0.88;;
75064;SDS011;63646;49.110;9.140;2022-09-27T05:08:17;7.45;;;1.00;;
75064;SDS011;63646;49.110;9.140;2022-09-27T05:10:45;6.22;;;1.40;;
75064;SDS011;63646;49.110;9.140;2022-09-27T05:13:11;3.55;;;1.17;;
75064;SDS011;63646;49.110;9.140;2022-09-27T05:15:37;5.43;;;1.10;;
75064;SDS011;63646;49.110;9.140;2022-09-27T05:18:03;2.30;;;1.00;;
75064;SDS011;63646;49.110;9.140;2022-09-27T05:20:31;5.10;;;1.13;;
75064;SDS011;63646;49.110;9.140;2022-09-27T05:22:56;3.38;;;1.15;;
75064;SDS011;63646;49.110;9.140;2022-09-27T05:25:22;3.72;;;1.20;;
75064;SDS011;63646;49.110;9.140;2022-09-27T05:27:48;4.00;;;1.20;;
75064;SDS011;63646;49.110;9.140;2022-09-27T05:30:14;3.53;;;1.00;;
75064;SDS011;63646;49.110;9.140;2022-09-27T05:32:43;4.13;;;1.35;;
75064;SDS011;63646;49.110;9.140;2022-09-27T05:35:11;2.17;;;0.95;;
75064;SDS011;63646;49.110;9.140;2022-09-27T05:37:36;2.38;;;1.05;;
75064;SDS011;63646;49.110;9.140;2022-09-27T05:40:04;3.65;;;1.30;;
75064;SDS011;63646;49.110;9.140;2022-09-27T05:42:30;1.98;;;1.20;;
75064;SDS011;63646;49.110;9.140;2022-09-27T05:44:56;4.68;;;1.38;;
75064;SDS011;63646;49.110;9.140;2022-09-27T05:47:21;7.47;;;1.77;;
75064;SDS011;63646;49.110;9.140;2022-09-27T05:49:47;6.20;;;1.50;;
75064;SDS011;63646;49.110;9.140;2022-09-27T05:52:12;6.32;;;1.83;;
75064;SDS011;63646;49.110;9.140;2022-09-27T05:54:38;3.78;;;1.50;;
75064;SDS011;63646;49.110;9.140;2022-09-27T05:57:03;6.57;;;1.65;;
75064;SDS011;63646;49.110;9.140;2022-09-27T05:59:32;4.20;;;1.50;;
75064;SDS011;63646;49.110;9.140;2022-09-27T06:01:58;6.95;;;1.50;;
75064;SDS011;63646;49.110;9.140;2022-09-27T06:04:23;6.82;;;1.70;;
75064;SDS011;63646;49.110;9.140;2022-09-27T06:06:49;7.50;;;1.90;;
75064;SDS011;63646;49.110;9.140;2022-09-27T06:09:14;7.22;;;1.88;;
75064;SDS011;63646;49.110;9.140;2022-09-27T06:11:41;8.05;;;1.30;;
75064;SDS011;63646;49.110;9.140;2022-09-27T06:14:09;4.45;;;1.52;;
75064;SDS011;63646;49.110;9.140;2022-09-27T06:16:35;8.30;;;1.60;;
75064;SDS011;63646;49.110;9.140;2022-09-27T06:19:01;6.43;;;1.35;;
75064;SDS011;63646;49.110;9.140;2022-09-27T06:21:28;5.22;;;1.40;;
75064;SDS011;63646;49.110;9.140;2022-09-27T06:23:54;5.45;;;1.83;;
75064;SDS011;63646;49.110;9.140;2022-09-27T06:26:21;8.88;;;1.63;;
75064;SDS011;63646;49.110;9.140;2022-09-27T06:28:46;6.88;;;1.70;;
75064;SDS011;63646;49.110;9.140;2022-09-27T06:31:11;5.82;;;1.40;;
75064;SDS011;63646;49.110;9.140;2022-09-27T06:33:38;6.88;;;1.60;;
75064;SDS011;63646;49.110;9.140;2022-09-27T06:36:04;6.13;;;1.73;;
75064;SDS011;63646;49.110;9.140;2022-09-27T06:38:31;8.50;;;1.80;;
75064;SDS011;63646;49.110;9.140;2022-09-27T06:40:59;6.10;;;1.60;;
75064;SDS011;63646;49.110;9.140;2022-09-27T06:43:26;6.13;;;1.70;;
75064;SDS011;63646;49.110;9.140;2022-09-27T06:45:52;8.48;;;1.60;;
75064;SDS011;63646;49.110;9.140;2022-09-27T06:48:17;6.95;;;1.70;;
75064;SDS011;63646;49.110;9.140;2022-09-27T06:50:44;4.22;;;1.98;;
75064;SDS011;63646;49.110;9.140;2022-09-27T06:53:11;4.55;;;1.45;;
75064;SDS011;63646;49.110;9.140;2022-09-27T06:55:38;5.90;;;1.50;;
75064;SDS011;63646;49.110;9.140;2022-09-27T06:58:04;2.42;;;1.30;;
75064;SDS011;63646;49.110;9.140;2022-09-27T07:00:52;6.72;;;1.73;;
75064;SDS011;63646;49.110;9.140;2022-09-27T07:03:18;6.38;;;2.15;;
75064;SDS011;63646;49.110;9.140;2022-09-27T07:05:57;4.90;;;1.60;;
75064;SDS011;63646;49.110;9.140;2022-09-27T07:08:24;7.03;;;1.63;;
75064;SDS011;63646;49.110;9.140;2022-09-27T07:10:52;4.25;;;1.60;;
75064;SDS011;63646;49.110;9.140;2022-09-27T07:13:19;5.18;;;1.73;;
75064;SDS011;63646;49.110;9.140;2022-09-27T07:15:45;3.92;;;2.60;;
75064;SDS011;63646;49.110;9.140;2022-09-27T07:18:11;8.02;;;1.60;;
75064;SDS011;63646;49.110;9.140;2022-09-27T07:20:36;3.42;;;1.70;;
75064;SDS011;63646;49.110;9.140;2022-09-27T07:23:02;3.95;;;1.63;;
75064;SDS011;63646;49.110;9.140;2022-09-27T07:25:32;3.30;;;1.42;;
75064;SDS011;63646;49.110;9.140;2022-09-27T07:28:00;5.32;;;1.50;;
75064;SDS011;63646;49.110;9.140;2022-09-27T07:30:27;3.10;;;1.48;;
75064;SDS011;63646;49.110;9.140;2022-09-27T07:32:57;3.72;;;1.50;;
75064;SDS011;63646;49.110;9.140;2022-09-27T07:35:23;4.43;;;1.52;;
75064;SDS011;63646;49.110;9.140;2022-09-27T07:37:49;3.00;;;1.58;;
75064;SDS011;63646;49.110;9.140;2022-09-27T07:40:16;2.17;;;1.52;;
75064;SDS011;63646;49.110;9.140;2022-09-27T07:42:41;4.75;;;1.70;;
75064;SDS011;63646;49.110;9.140;2022-09-27T07:45:07;4.00;;;1.45;;
75064;SDS011;63646;49.110;9.140;2022-09-27T07:47:33;3.80;;;1.33;;
75064;SDS011;63646;49.110;9.140;2022-09-27T07:50:01;4.47;;;1.40;;
75064;SDS011;63646;49.110;9.140;2022-09-27T07:52:28;3.95;;;1.30;;
75064;SDS011;63646;49.110;9.140;2022-09-27T07:54:54;3.70;;;1.50;;
75064;SDS011;63646;49.110;9.140;2022-09-27T07:57:20;3.58;;;1.48;;
75064;SDS011;63646;49.110;9.140;2022-09-27T07:59:47;2.58;;;1.25;;
75064;SDS011;63646;49.110;9.140;2022-09-27T08:02:13;3.88;;;1.42;;
75064;SDS011;63646;49.110;9.140;2022-09-27T08:04:40;1.88;;;1.23;;
75064;SDS011;63646;49.110;9.140;2022-09-27T08:07:07;2.40;;;1.30;;
75064;SDS011;63646;49.110;9.140;2022-09-27T08:09:34;2.85;;;1.20;;
75064;SDS011;63646;49.110;9.140;2022-09-27T08:11:59;3.58;;;1.42;;
75064;SDS011;63646;49.110;9.140;2022-09-27T08:14:25;3.40;;;1.33;;
75064;SDS011;63646;49.110;9.140;2022-09-27T08:16:50;4.05;;;1.52;;
75064;SDS011;63646;49.110;9.140;2022-09-27T08:19:16;3.25;;;1.40;;
75064;SDS011;63646;49.110;9.140;2022-09-27T08:21:43;2.55;;;1.30;;
75064;SDS011;63646;49.110;9.140;2022-09-27T08:24:08;3.40;;;1.50;;
75064;SDS011;63646;49.110;9.140;2022-09-27T08:26:33;4.75;;;1.33;;
75064;SDS011;63646;49.110;9.140;2022-09-27T08:28:59;3.75;;;1.25;;
75064;SDS011;63646;49.110;9.140;2022-09-27T08:31:24;4.00;;;1.60;;
75064;SDS011;63646;49.110;9.140;2022-09-27T08:33:50;2.60;;;1.60;;
75064;SDS011;63646;49.110;9.140;2022-09-27T08:36:15;5.65;;;1.70;;
75064;SDS011;63646;49.110;9.140;2022-09-27T08:38:42;4.78;;;1.55;;
75064;SDS011;63646;49.110;9.140;2022-09-27T08:41:12;5.80;;;1.50;;
75064;SDS011;63646;49.110;9.140;2022-09-27T08:43:59;4.50;;;1.92;;
75064;SDS011;63646;49.110;9.140;2022-09-27T08:46:34;2.58;;;1.33;;
75064;SDS011;63646;49.110;9.140;2022-09-27T08:49:04;2.83;;;1.23;;
75064;SDS011;63646;49.110;9.140;2022-09-27T08:51:50;3.08;;;1.38;;
75064;SDS011;63646;49.110;9.140;2022-09-27T08:54:22;7.00;;;1.40;;
75064;SDS011;63646;49.110;9.140;2022-09-27T08:56:56;4.93;;;1.60;;
75064;SDS011;63646;49.110;9.140;2022-09-27T08:59:28;5.40;;;1.67;;
75064;SDS011;63646;49.110;9.140;2022-09-27T09:01:59;3.03;;;1.50;;
75064;SDS011;63646;49.110;9.140;2022-09-27T09:04:30;4.15;;;1.40;;
75064;SDS011;63646;49.110;9.140;2022-09-27T09:09:47;5.03;;;1.88;;
75064;SDS011;63646;49.110;9.140;2022-09-27T09:18:36;6.57;;;1.52;;
75064;SDS011;63646;49.110;9.140;2022-09-27T09:35:16;2.20;;;1.17;;
75064;SDS011;63646;49.110;9.140;2022-09-27T09:40:35;3.08;;;1.30;;
75064;SDS011;63646;49.110;9.140;2022-09-27T09:43:17;4.18;;;1.33;;
75064;SDS011;63646;49.110;9.140;2022-09-27T09:46:17;3.45;;;1.23;;
75064;SDS011;63646;49.110;9.140;2022-09-27T09:51:41;1.67;;;1.30;;
75064;SDS011;63646;49.110;9.140;2022-09-27T09:59:37;4.13;;;1.73;;
75064;SDS011;63646;49.110;9.140;2022-09-27T10:05:06;14.05;;;4.00;;
75064;SDS011;63646;49.110;9.140;2022-09-27T10:07:37;13.35;;;4.55;;
75064;SDS011;63646;49.110;9.140;2022-09-27T10:10:04;6.85;;;2.63;;
75064;SDS011;63646;49.110;9.140;2022-09-27T10:12:32;10.43;;;2.72;;
75064;SDS011;63646;49.110;9.140;2022-09-27T10:14:58;12.82;;;4.40;;
75064;SDS011;63646;49.110;9.140;2022-09-27T10:17:27;11.07;;;2.90;;
75064;SDS011;63646;49.110;9.140;2022-09-27T10:20:01;7.68;;;2.30;;
75064;SDS011;63646;49.110;9.140;2022-09-27T10:22:30;6.30;;;2.13;;
75064;SDS011;63646;49.110;9.140;2022-09-27T10:25:09;7.07;;;2.05;;
75064;SDS011;63646;49.110;9.140;2022-09-27T10:27:44;5.85;;;2.15;;
75064;SDS011;63646;49.110;9.140;2022-09-27T10:30:27;6.43;;;1.77;;
75064;SDS011;63646;49.110;9.140;2022-09-27T10:33:04;4.20;;;1.80;;
75064;SDS011;63646;49.110;9.140;2022-09-27T10:35:44;4.18;;;1.77;;
75064;SDS011;63646;49.110;9.140;2022-09-27T10:40:46;5.25;;;1.67;;
75064;SDS011;63646;49.110;9.140;2022-09-27T10:46:08;5.30;;;1.60;;
75064;SDS011;63646;49.110;9.140;2022-09-27T10:48:39;4.70;;;2.03;;
75064;SDS011;63646;49.110;9.140;2022-09-27T10:51:21;7.00;;;1.88;;
75064;SDS011;63646;49.110;9.140;2022-09-27T10:53:50;9.20;;;1.73;;
75064;SDS011;63646;49.110;9.140;2022-09-27T10:56:23;7.55;;;1.67;;
75064;SDS011;63646;49.110;9.140;2022-09-27T10:58:52;6.47;;;1.40;;
75064;SDS011;63646;49.110;9.140;2022-09-27T11:01:19;2.90;;;1.40;;
75064;SDS011;63646;49.110;9.140;2022-09-27T11:03:53;6.88;;;2.15;;
75064;SDS011;63646;49.110;9.140;2022-09-27T11:08:46;3.87;;;1.67;;
75064;SDS011;63646;49.110;9.140;2022-09-27T11:13:39;8.57;;;1.80;;
75064;SDS011;63646;49.110;9.140;2022-09-27T11:21:32;5.53;;;1.67;;
75064;SDS011;63646;49.110;9.140;2022-09-27T11:32:24;5.05;;;1.40;;
75064;SDS011;63646;49.110;9.140;2022-09-27T11:37:36;3.20;;;1.50;;
75064;SDS011;63646;49.110;9.140;2022-09-27T11:40:30;4.13;;;1.27;;
75064;SDS011;63646;49.110;9.140;2022-09-27T11:43:13;3.47;;;1.30;;
75064;SDS011;63646;49.110;9.140;2022-09-27T12:07:52;4.95;;;1.20;;
75064;SDS011;63646;49.110;9.140;2022-09-27T12:10:37;6.57;;;1.33;;
75064;SDS011;63646;49.110;9.140;2022-09-27T12:13:07;3.10;;;1.30;;
75064;SDS011;63646;49.110;9.140;2022-09-27T12:15:38;3.70;;;1.17;;
75064;SDS011;63646;49.110;9.140;2022-09-27T12:18:23;5.53;;;1.50;;
75064;SDS011;63646;49.110;9.140;2022-09-27T12:20:53;6.60;;;1.42;;
75064;SDS011;63646;49.110;9.140;2022-09-27T12:23:25;5.63;;;1.50;;
75064;SDS011;63646;49.110;9.140;2022-09-27T12:26:09;5.07;;;1.73;;
75064;SDS011;63646;49.110;9.140;2022-09-27T12:28:42;4.53;;;1.40;;
75064;SDS011;63646;49.110;9.140;2022-09-27T12:34:14;4.57;;;1.50;;
75064;SDS011;63646;49.110;9.140;2022-09-27T12:36:42;3.75;;;1.10;;
75064;SDS011;63646;49.110;9.140;2022-09-27T12:39:16;2.60;;;1.40;;
75064;SDS011;63646;49.110;9.140;2022-09-27T12:41:43;6.20;;;1.50;;
75064;SDS011;63646;49.110;9.140;2022-09-27T12:44:14;4.32;;;1.27;;
75064;SDS011;63646;49.110;9.140;2022-09-27T12:52:20;2.88;;;1.40;;
75064;SDS011;63646;49.110;9.140;2022-09-27T13:00:18;5.50;;;1.10;;
75064;SDS011;63646;49.110;9.140;2022-09-27T13:13:35;4.72;;;1.30;;
75064;SDS011;63646;49.110;9.140;2022-09-27T13:16:03;4.25;;;1.38;;
75064;SDS011;63646;49.110;9.140;2022-09-27T13:24:00;12.75;;;2.20;;
75064;SDS011;63646;49.110;9.140;2022-09-27T13:28:58;4.40;;;1.50;;
75064;SDS011;63646;49.110;9.140;2022-09-27T13:37:20;3.03;;;0.90;;
75064;SDS011;63646;49.110;9.140;2022-09-27T13:42:43;2.20;;;1.20;;
75064;SDS011;63646;49.110;9.140;2022-09-27T13:45:33;6.05;;;1.10;;
75064;SDS011;63646;49.110;9.140;2022-09-27T13:48:01;3.05;;;1.02;;
75064;SDS011;63646;49.110;9.140;2022-09-27T13:51:01;4.90;;;1.20;;
75064;SDS011;63646;49.110;9.140;2022-09-27T13:53:57;5.65;;;1.38;;
75064;SDS011;63646;49.110;9.140;2022-09-27T13:59:15;10.80;;;3.05;;
75064;SDS011;63646;49.110;9.140;2022-09-27T14:01:51;4.15;;;1.40;;
75064;SDS011;63646;49.110;9.140;2022-09-27T14:04:24;4.13;;;1.60;;
75064;SDS011;63646;49.110;9.140;2022-09-27T14:06:57;4.13;;;1.70;;
75064;SDS011;63646;49.110;9.140;2022-09-27T14:09:26;5.63;;;1.65;;
75064;SDS011;63646;49.110;9.140;2022-09-27T14:11:57;4.53;;;1.50;;
75064;SDS011;63646;49.110;9.140;2022-09-27T14:14:26;7.15;;;1.52;;
75064;SDS011;63646;49.110;9.140;2022-09-27T14:16:54;4.70;;;1.50;;
75064;SDS011;63646;49.110;9.140;2022-09-27T14:19:25;2.95;;;1.23;;
75064;SDS011;63646;49.110;9.140;2022-09-27T14:21:51;6.40;;;1.50;;
75064;SDS011;63646;49.110;9.140;2022-09-27T14:24:27;5.28;;;1.52;;
75064;SDS011;63646;49.110;9.140;2022-09-27T14:27:20;3.75;;;1.40;;
75064;SDS011;63646;49.110;9.140;2022-09-27T14:30:00;4.03;;;1.33;;
75064;SDS011;63646;49.110;9.140;2022-09-27T14:32:43;3.00;;;1.20;;
75064;SDS011;63646;49.110;9.140;2022-09-27T14:35:23;3.38;;;1.10;;
75064;SDS011;63646;49.110;9.140;2022-09-27T14:38:10;4.57;;;1.27;;
75064;SDS011;63646;49.110;9.140;2022-09-27T14:43:22;10.38;;;1.58;;
75064;SDS011;63646;49.110;9.140;2022-09-27T14:45:48;3.25;;;1.08;;
75064;SDS011;63646;49.110;9.140;2022-09-27T14:48:21;3.55;;;1.10;;
75064;SDS011;63646;49.110;9.140;2022-09-27T14:53:44;3.08;;;1.30;;
75064;SDS011;63646;49.110;9.140;2022-09-27T14:56:14;2.88;;;1.10;;
75064;SDS011;63646;49.110;9.140;2022-09-27T14:58:43;3.05;;;1.10;;
75064;SDS011;63646;49.110;9.140;2022-09-27T15:01:16;1.77;;;1.10;;
75064;SDS011;63646;49.110;9.140;2022-09-27T15:03:44;3.28;;;1.40;;
75064;SDS011;63646;49.110;9.140;2022-09-27T15:06:12;3.70;;;1.23;;
75064;SDS011;63646;49.110;9.140;2022-09-27T15:08:39;4.03;;;1.20;;
75064;SDS011;63646;49.110;9.140;2022-09-27T15:11:07;5.22;;;1.23;;
75064;SDS011;63646;49.110;9.140;2022-09-27T15:13:34;4.43;;;1.30;;
75064;SDS011;63646;49.110;9.140;2022-09-27T15:16:06;6.28;;;1.23;;
75064;SDS011;63646;49.110;9.140;2022-09-27T15:18:38;5.90;;;1.55;;
75064;SDS011;63646;49.110;9.140;2022-09-27T15:21:10;3.90;;;1.33;;
75064;SDS011;63646;49.110;9.140;2022-09-27T15:23:51;5.45;;;1.27;;
75064;SDS011;63646;49.110;9.140;2022-09-27T15:26:24;2.10;;;1.38;;
75064;SDS011;63646;49.110;9.140;2022-09-27T15:28:59;7.07;;;1.50;;
75064;SDS011;63646;49.110;9.140;2022-09-27T15:31:29;5.63;;;1.42;;
75064;SDS011;63646;49.110;9.140;2022-09-27T15:33:56;2.85;;;1.13;;
75064;SDS011;63646;49.110;9.140;2022-09-27T15:39:18;5.40;;;1.10;;
75064;SDS011;63646;49.110;9.140;2022-09-27T15:42:09;2.83;;;1.40;;
75064;SDS011;63646;49.110;9.140;2022-09-27T15:52:45;3.33;;;1.40;;
75064;SDS011;63646;49.110;9.140;2022-09-27T15:57:40;5.75;;;1.30;;
75064;SDS011;63646;49.110;9.140;2022-09-27T16:00:06;3.47;;;1.17;;
75064;SDS011;63646;49.110;9.140;2022-09-27T16:02:31;5.18;;;1.75;;
75064;SDS011;63646;49.110;9.140;2022-09-27T16:04:57;5.45;;;1.85;;
75064;SDS011;63646;49.110;9.140;2022-09-27T16:07:22;6.32;;;1.90;;
75064;SDS011;63646;49.110;9.140;2022-09-27T16:09:48;5.57;;;2.20;;
75064;SDS011;63646;49.110;9.140;2022-09-27T16:12:15;6.07;;;2.20;;
75064;SDS011;63646;49.110;9.140;2022-09-27T16:14:41;6.15;;;1.65;;
75064;SDS011;63646;49.110;9.140;2022-09-27T16:17:07;4.75;;;1.50;;
75064;SDS011;63646;49.110;9.140;2022-09-27T16:19:33;5.28;;;1.85;;
75064;SDS011;63646;49.110;9.140;2022-09-27T16:21:59;6.40;;;1.73;;
75064;SDS011;63646;49.110;9.140;2022-09-27T16:24:27;6.47;;;1.50;;
75064;SDS011;63646;49.110;9.140;2022-09-27T16:26:53;7.78;;;1.67;;
75064;SDS011;63646;49.110;9.140;2022-09-27T16:29:18;10.32;;;1.88;;
75064;SDS011;63646;49.110;9.140;2022-09-27T16:31:43;4.30;;;1.30;;
75064;SDS011;63646;49.110;9.140;2022-09-27T16:34:10;5.20;;;1.55;;
75064;SDS011;63646;49.110;9.140;2022-09-27T16:36:36;5.95;;;1.40;;
75064;SDS011;63646;49.110;9.140;2022-09-27T16:41:30;6.28;;;1.75;;
75064;SDS011;63646;49.110;9.140;2022-09-27T16:43:57;10.80;;;1.98;;
75064;SDS011;63646;49.110;9.140;2022-09-27T16:46:23;8.18;;;1.70;;
75064;SDS011;63646;49.110;9.140;2022-09-27T16:48:49;4.35;;;1.67;;
75064;SDS011;63646;49.110;9.140;2022-09-27T16:51:19;7.25;;;1.70;;
75064;SDS011;63646;49.110;9.140;2022-09-27T16:54:04;7.28;;;1.60;;
75064;SDS011;63646;49.110;9.140;2022-09-27T16:58:56;9.93;;;1.67;;
75064;SDS011;63646;49.110;9.140;2022-09-27T17:01:23;7.70;;;1.50;;
75064;SDS011;63646;49.110;9.140;2022-09-27T17:03:49;5.88;;;1.75;;
75064;SDS011;63646;49.110;9.140;2022-09-27T17:08:42;5.75;;;1.30;;
75064;SDS011;63646;49.110;9.140;2022-09-27T17:11:10;7.07;;;1.55;;
75064;SDS011;63646;49.110;9.140;2022-09-27T17:13:36;12.18;;;2.00;;
75064;SDS011;63646;49.110;9.140;2022-09-27T17:16:02;5.82;;;1.67;;
75064;SDS011;63646;49.110;9.140;2022-09-27T17:18:29;7.35;;;2.20;;
75064;SDS011;63646;49.110;9.140;2022-09-27T17:20:58;4.40;;;1.63;;
75064;SDS011;63646;49.110;9.140;2022-09-27T17:23:25;8.90;;;2.58;;
75064;SDS011;63646;49.110;9.140;2022-09-27T17:25:51;5.93;;;2.15;;
75064;SDS011;63646;49.110;9.140;2022-09-27T17:28:20;5.65;;;2.13;;
75064;SDS011;63646;49.110;9.140;2022-09-27T17:30:46;6.78;;;2.13;;
75064;SDS011;63646;49.110;9.140;2022-09-27T17:33:11;8.82;;;2.20;;
75064;SDS011;63646;49.110;9.140;2022-09-27T17:35:37;4.90;;;2.00;;
75064;SDS011;63646;49.110;9.140;2022-09-27T17:38:02;7.43;;;1.70;;
75064;SDS011;63646;49.110;9.140;2022-09-27T17:40:28;6.88;;;1.63;;
75064;SDS011;63646;49.110;9.140;2022-09-27T17:42:54;10.63;;;2.30;;
75064;SDS011;63646;49.110;9.140;2022-09-27T17:45:20;9.98;;;2.05;;
75064;SDS011;63646;49.110;9.140;2022-09-27T17:47:45;9.23;;;1.90;;
75064;SDS011;63646;49.110;9.140;2022-09-27T17:50:29;5.95;;;1.50;;
75064;SDS011;63646;49.110;9.140;2022-09-27T17:52:55;4.45;;;1.30;;
75064;SDS011;63646;49.110;9.140;2022-09-27T17:55:22;5.03;;;1.63;;
75064;SDS011;63646;49.110;9.140;2022-09-27T17:57:48;6.55;;;1.30;;
75064;SDS011;63646;49.110;9.140;2022-09-27T18:00:15;4.78;;;1.35;;
75064;SDS011;63646;49.110;9.140;2022-09-27T18:02:41;4.90;;;1.40;;
75064;SDS011;63646;49.110;9.140;2022-09-27T18:05:07;6.15;;;1.50;;
75064;SDS011;63646;49.110;9.140;2022-09-27T18:07:33;5.32;;;1.45;;
75064;SDS011;63646;49.110;9.140;2022-09-27T18:09:59;6.28;;;1.60;;
75064;SDS011;63646;49.110;9.140;2022-09-27T18:12:26;9.55;;;1.77;;
75064;SDS011;63646;49.110;9.140;2022-09-27T18:14:56;4.47;;;1.48;;
75064;SDS011;63646;49.110;9.140;2022-09-27T18:17:22;3.50;;;1.15;;
75064;SDS011;63646;49.110;9.140;2022-09-27T18:19:48;6.80;;;1.52;;
75064;SDS011;63646;49.110;9.140;2022-09-27T18:22:14;9.02;;;1.85;;